Malone, Washington
Current Conditions -  °F | °C
As of 3:54 AM on Thursday 29 Jan 2015 (Local Time) from KOLM Reporting Station
Moderate Fog Moderate Fog  
Wind Chill: 32°   Ceiling: 100
Heat Index: 36°   Visibility: 0.5mi
Dew Point: 36°   Wind: 5mph
Humidity: 100%   Direction: 180°S
Pressure: 30.36"   Gusts: NA
Location:  46.96°N, 123.33°W
Report Text: KOLM 291154Z AUTO 18004KT 1/2SM FG VV001 02/02 A3036 RMK AO2 SLP281 I6000 T00220022 10039 20011 58000
Loading
Personal Weather Stations






























Interactive Weather Map New forecast layout! Learn more

10-Day Weather Forecast

Advertisements
Track Severe Weather on mobile